HAZ2751 ZSHC-ZHHH
Flight info
| Callsign | HAZ2751 |
|---|---|
| Flight time | 1h 9m |
| Altitude | 25600 |
| Route | NIVIK5E NIVIK W135 DOGVI W545 VEMEX W73 MADUK W51 LEGIV W164 ADGOL W50 XSH XSH1T |
| Aircraft | A320/M-SDE3FGHIRWY/LB1 |
Departure
| Time | 2026-04-28 11:48 |
|---|---|
| Airport | Hangzhou Xiaoshan International Airport (ZSHC) |
Arrival
| Time | 2026-04-28 12:57 |
|---|---|
| Airport | Wuhan Tianhe International Airport (ZHHH) |
| Time | Latitude | Longitude | Altitude | Speed | Heading |
|---|---|---|---|---|---|
| 2026-04-28 11:41 | 30.24119 | 120.42885 | 32 ft | 0 kts | 333° |
| 2026-04-28 11:42 | 30.24126 | 120.42881 | 32 ft | 1 kts | 333° |
| 2026-04-28 11:42 | 30.24130 | 120.42879 | 32 ft | 0 kts | 333° |
| 2026-04-28 11:43 | 30.24163 | 120.42859 | 31 ft | 11 kts | 333° |
| 2026-04-28 11:43 | 30.24248 | 120.42808 | 32 ft | 14 kts | 333° |
| 2026-04-28 11:43 | 30.24337 | 120.42802 | 32 ft | 13 kts | 356° |
| 2026-04-28 11:43 | 30.24368 | 120.42725 | 30 ft | 13 kts | 244° |
| 2026-04-28 11:44 | 30.24305 | 120.42584 | 32 ft | 27 kts | 243° |
| 2026-04-28 11:44 | 30.24216 | 120.42382 | 32 ft | 28 kts | 243° |
| 2026-04-28 11:44 | 30.24135 | 120.42201 | 32 ft | 16 kts | 242° |
| 2026-04-28 11:44 | 30.24171 | 120.42107 | 32 ft | 14 kts | 301° |
| 2026-04-28 11:45 | 30.24134 | 120.41972 | 32 ft | 23 kts | 243° |
| 2026-04-28 11:45 | 30.24050 | 120.41783 | 32 ft | 28 kts | 243° |
| 2026-04-28 11:45 | 30.23959 | 120.41579 | 32 ft | 28 kts | 243° |
| 2026-04-28 11:45 | 30.23868 | 120.41371 | 32 ft | 29 kts | 242° |
| 2026-04-28 11:46 | 30.23785 | 120.41187 | 32 ft | 16 kts | 243° |
| 2026-04-28 11:46 | 30.23790 | 120.41104 | 31 ft | 10 kts | 324° |
| 2026-04-28 11:46 | 30.23863 | 120.41052 | 34 ft | 15 kts | 332° |
| 2026-04-28 11:46 | 30.23923 | 120.41064 | 33 ft | 9 kts | 63° |
| 2026-04-28 11:47 | 30.23944 | 120.41110 | 32 ft | 10 kts | 63° |
| 2026-04-28 11:47 | 30.24070 | 120.41393 | 31 ft | 75 kts | 63° |
| 2026-04-28 11:47 | 30.24403 | 120.42146 | 32 ft | 133 kts | 63° |
| 2026-04-28 11:47 | 30.24890 | 120.43247 | 181 ft | 165 kts | 61° |
| 2026-04-28 11:48 | 30.25401 | 120.44430 | 833 ft | 164 kts | 59° |
| 2026-04-28 11:48 | 30.25918 | 120.45597 | 1624 ft | 162 kts | 61° |
| 2026-04-28 11:48 | 30.26427 | 120.46740 | 2378 ft | 158 kts | 62° |
| 2026-04-28 11:48 | 30.26925 | 120.47863 | 3080 ft | 156 kts | 64° |
| 2026-04-28 11:49 | 30.27434 | 120.49012 | 3523 ft | 169 kts | 64° |
| 2026-04-28 11:49 | 30.28067 | 120.50245 | 3884 ft | 187 kts | 51° |
| 2026-04-28 11:49 | 30.29247 | 120.50995 | 4388 ft | 209 kts | 15° |
| 2026-04-28 11:49 | 30.30734 | 120.50653 | 4911 ft | 232 kts | 338° |
| 2026-04-28 11:50 | 30.32138 | 120.49665 | 5447 ft | 240 kts | 327° |
| 2026-04-28 11:50 | 30.33262 | 120.48218 | 5916 ft | 251 kts | 296° |
| 2026-04-28 11:50 | 30.33722 | 120.46203 | 6208 ft | 270 kts | 266° |
| 2026-04-28 11:50 | 30.33322 | 120.44065 | 6736 ft | 275 kts | 240° |
| 2026-04-28 11:51 | 30.32455 | 120.42094 | 7599 ft | 274 kts | 239° |
| 2026-04-28 11:51 | 30.31598 | 120.40162 | 8542 ft | 273 kts | 240° |
| 2026-04-28 11:51 | 30.30724 | 120.38183 | 9492 ft | 272 kts | 240° |
| 2026-04-28 11:51 | 30.29876 | 120.36262 | 10404 ft | 271 kts | 241° |
| 2026-04-28 11:52 | 30.29021 | 120.34315 | 11220 ft | 272 kts | 244° |
| 2026-04-28 11:52 | 30.28558 | 120.32189 | 11994 ft | 278 kts | 266° |
| 2026-04-28 11:52 | 30.28915 | 120.29973 | 12784 ft | 288 kts | 289° |
| 2026-04-28 11:52 | 30.30127 | 120.28084 | 13565 ft | 302 kts | 314° |
| 2026-04-28 11:53 | 30.31856 | 120.26644 | 14183 ft | 313 kts | 319° |
| 2026-04-28 11:53 | 30.33711 | 120.25163 | 14314 ft | 335 kts | 320° |
| 2026-04-28 11:53 | 30.35691 | 120.23586 | 14430 ft | 356 kts | 320° |
| 2026-04-28 11:53 | 30.37786 | 120.21920 | 14554 ft | 375 kts | 320° |
| 2026-04-28 11:54 | 30.39975 | 120.20181 | 14856 ft | 386 kts | 320° |
| 2026-04-28 11:54 | 30.42203 | 120.18410 | 15353 ft | 391 kts | 320° |
| 2026-04-28 11:54 | 30.44451 | 120.16618 | 15894 ft | 394 kts | 320° |
| 2026-04-28 11:54 | 30.46714 | 120.14810 | 16424 ft | 397 kts | 320° |
| 2026-04-28 11:55 | 30.48993 | 120.12985 | 16982 ft | 399 kts | 320° |
| 2026-04-28 11:55 | 30.51282 | 120.11145 | 17526 ft | 402 kts | 320° |
| 2026-04-28 11:55 | 30.53586 | 120.09293 | 18014 ft | 405 kts | 319° |
| 2026-04-28 11:55 | 30.55913 | 120.07418 | 18493 ft | 408 kts | 319° |
| 2026-04-28 11:56 | 30.58253 | 120.05534 | 18915 ft | 411 kts | 320° |
| 2026-04-28 11:56 | 30.60608 | 120.03636 | 19334 ft | 413 kts | 320° |
| 2026-04-28 11:56 | 30.62976 | 120.01725 | 19764 ft | 416 kts | 320° |
| 2026-04-28 11:56 | 30.65358 | 119.99804 | 20186 ft | 418 kts | 320° |
| 2026-04-28 11:57 | 30.67750 | 119.97878 | 20603 ft | 420 kts | 320° |
| 2026-04-28 11:57 | 30.70159 | 119.95939 | 21022 ft | 422 kts | 320° |
| 2026-04-28 11:57 | 30.72578 | 119.93987 | 21425 ft | 425 kts | 320° |
| 2026-04-28 11:57 | 30.75011 | 119.92022 | 21810 ft | 427 kts | 320° |
| 2026-04-28 11:58 | 30.77450 | 119.90041 | 22214 ft | 429 kts | 319° |
| 2026-04-28 11:58 | 30.79870 | 119.88009 | 22560 ft | 430 kts | 318° |
| 2026-04-28 11:58 | 30.82282 | 119.85931 | 22919 ft | 432 kts | 317° |
| 2026-04-28 11:58 | 30.84693 | 119.83826 | 23275 ft | 434 kts | 317° |
| 2026-04-28 11:59 | 30.87114 | 119.81704 | 23623 ft | 437 kts | 317° |
| 2026-04-28 11:59 | 30.89557 | 119.79574 | 23905 ft | 440 kts | 318° |
| 2026-04-28 11:59 | 30.91985 | 119.77476 | 24193 ft | 442 kts | 318° |
| 2026-04-28 11:59 | 30.94497 | 119.75320 | 24494 ft | 444 kts | 318° |
| 2026-04-28 12:00 | 30.96994 | 119.73182 | 24789 ft | 446 kts | 318° |
| 2026-04-28 12:00 | 30.99495 | 119.71036 | 25100 ft | 447 kts | 318° |
| 2026-04-28 12:00 | 31.01967 | 119.68905 | 25379 ft | 449 kts | 318° |
| 2026-04-28 12:00 | 31.04481 | 119.66734 | 25641 ft | 451 kts | 318° |
| 2026-04-28 12:01 | 31.07003 | 119.64551 | 25729 ft | 454 kts | 318° |
| 2026-04-28 12:01 | 31.09550 | 119.62343 | 25747 ft | 458 kts | 318° |
| 2026-04-28 12:01 | 31.12117 | 119.60120 | 25744 ft | 461 kts | 318° |
| 2026-04-28 12:01 | 31.14712 | 119.57873 | 25744 ft | 469 kts | 318° |
| 2026-04-28 12:02 | 31.17346 | 119.55589 | 25744 ft | 473 kts | 318° |
| 2026-04-28 12:02 | 31.19997 | 119.53295 | 25747 ft | 475 kts | 318° |
| 2026-04-28 12:02 | 31.22660 | 119.50992 | 25742 ft | 477 kts | 318° |
| 2026-04-28 12:02 | 31.25328 | 119.48682 | 25744 ft | 478 kts | 318° |
| 2026-04-28 12:03 | 31.27997 | 119.46367 | 25747 ft | 478 kts | 318° |
| 2026-04-28 12:03 | 31.30667 | 119.44049 | 25747 ft | 477 kts | 318° |
| 2026-04-28 12:03 | 31.33330 | 119.41735 | 25750 ft | 477 kts | 318° |
| 2026-04-28 12:03 | 31.35996 | 119.39418 | 25749 ft | 477 kts | 318° |
| 2026-04-28 12:04 | 31.38663 | 119.37096 | 25777 ft | 477 kts | 317° |
| 2026-04-28 12:04 | 31.41326 | 119.34775 | 25774 ft | 477 kts | 317° |
| 2026-04-28 12:04 | 31.43985 | 119.32455 | 25772 ft | 477 kts | 317° |
| 2026-04-28 12:04 | 31.46643 | 119.30135 | 25774 ft | 476 kts | 317° |
| 2026-04-28 12:05 | 31.49295 | 119.27819 | 25774 ft | 476 kts | 317° |
| 2026-04-28 12:05 | 31.51947 | 119.25501 | 25769 ft | 476 kts | 317° |
| 2026-04-28 12:05 | 31.54597 | 119.23176 | 25769 ft | 475 kts | 317° |
| 2026-04-28 12:05 | 31.57238 | 119.20856 | 25775 ft | 474 kts | 317° |
| 2026-04-28 12:06 | 31.59873 | 119.18529 | 25779 ft | 474 kts | 317° |
| 2026-04-28 12:06 | 31.62497 | 119.16199 | 25776 ft | 473 kts | 317° |
| 2026-04-28 12:06 | 31.65110 | 119.13849 | 25773 ft | 472 kts | 316° |
| 2026-04-28 12:06 | 31.67640 | 119.11414 | 25767 ft | 470 kts | 314° |
| 2026-04-28 12:07 | 31.70102 | 119.08892 | 25783 ft | 469 kts | 312° |
| 2026-04-28 12:07 | 31.72518 | 119.06332 | 25783 ft | 467 kts | 312° |
| 2026-04-28 12:07 | 31.74922 | 119.03767 | 25783 ft | 467 kts | 312° |
| 2026-04-28 12:07 | 31.77337 | 119.01215 | 25778 ft | 467 kts | 313° |
| 2026-04-28 12:08 | 31.79648 | 118.98567 | 25775 ft | 461 kts | 306° |
| 2026-04-28 12:08 | 31.81543 | 118.95567 | 25779 ft | 454 kts | 296° |
| 2026-04-28 12:08 | 31.82946 | 118.92280 | 25774 ft | 447 kts | 287° |
| 2026-04-28 12:08 | 31.83847 | 118.88807 | 25761 ft | 442 kts | 279° |
| 2026-04-28 12:09 | 31.84284 | 118.85246 | 25756 ft | 439 kts | 270° |
| 2026-04-28 12:09 | 31.84215 | 118.81678 | 25754 ft | 436 kts | 263° |
| 2026-04-28 12:09 | 31.83906 | 118.78130 | 25749 ft | 436 kts | 263° |
| 2026-04-28 12:09 | 31.83593 | 118.74579 | 25748 ft | 436 kts | 262° |
| 2026-04-28 12:10 | 31.83277 | 118.71033 | 25744 ft | 436 kts | 262° |
| 2026-04-28 12:10 | 31.82956 | 118.67490 | 25742 ft | 436 kts | 262° |
| 2026-04-28 12:10 | 31.82632 | 118.63940 | 25754 ft | 436 kts | 262° |
| 2026-04-28 12:10 | 31.82307 | 118.60393 | 25755 ft | 436 kts | 262° |
| 2026-04-28 12:11 | 31.81983 | 118.56854 | 25729 ft | 436 kts | 262° |
| 2026-04-28 12:11 | 31.81655 | 118.53306 | 25730 ft | 437 kts | 262° |
| 2026-04-28 12:11 | 31.81327 | 118.49750 | 25730 ft | 438 kts | 262° |
| 2026-04-28 12:11 | 31.81000 | 118.46188 | 25731 ft | 439 kts | 262° |
| 2026-04-28 12:12 | 31.80782 | 118.43828 | 25729 ft | 439 kts | 262° |
| 2026-04-28 12:12 | 31.80449 | 118.40257 | 25731 ft | 440 kts | 262° |
| 2026-04-28 12:12 | 31.80001 | 118.35475 | 25738 ft | 440 kts | 262° |
| 2026-04-28 12:12 | 31.79627 | 118.31955 | 25740 ft | 439 kts | 258° |
| 2026-04-28 12:13 | 31.79142 | 118.29605 | 25740 ft | 438 kts | 252° |
| 2026-04-28 12:13 | 31.78010 | 118.26284 | 25754 ft | 438 kts | 245° |
| 2026-04-28 12:13 | 31.76319 | 118.21983 | 25749 ft | 438 kts | 245° |
| 2026-04-28 12:13 | 31.75458 | 118.19787 | 25741 ft | 438 kts | 245° |
| 2026-04-28 12:14 | 31.74185 | 118.16536 | 25744 ft | 438 kts | 245° |
| 2026-04-28 12:14 | 31.72912 | 118.13287 | 25744 ft | 438 kts | 245° |
| 2026-04-28 12:14 | 31.71754 | 118.09984 | 25734 ft | 438 kts | 252° |
| 2026-04-28 12:14 | 31.71007 | 118.06565 | 25759 ft | 438 kts | 256° |
| 2026-04-28 12:15 | 31.70303 | 118.03082 | 25720 ft | 439 kts | 256° |
| 2026-04-28 12:15 | 31.69592 | 117.99594 | 25728 ft | 440 kts | 255° |
| 2026-04-28 12:15 | 31.68872 | 117.96103 | 25722 ft | 441 kts | 255° |
| 2026-04-28 12:15 | 31.68147 | 117.92606 | 25723 ft | 441 kts | 255° |
| 2026-04-28 12:16 | 31.67420 | 117.89102 | 25730 ft | 442 kts | 255° |
| 2026-04-28 12:16 | 31.66691 | 117.85595 | 25724 ft | 442 kts | 255° |
| 2026-04-28 12:16 | 31.65961 | 117.82087 | 25723 ft | 443 kts | 255° |
| 2026-04-28 12:16 | 31.65231 | 117.78577 | 25728 ft | 443 kts | 255° |
| 2026-04-28 12:17 | 31.64499 | 117.75067 | 25731 ft | 443 kts | 255° |
| 2026-04-28 12:17 | 31.63768 | 117.71561 | 25725 ft | 443 kts | 255° |
| 2026-04-28 12:17 | 31.63037 | 117.68050 | 25727 ft | 443 kts | 255° |
| 2026-04-28 12:17 | 31.62302 | 117.64538 | 25728 ft | 443 kts | 255° |
| 2026-04-28 12:18 | 31.61565 | 117.61024 | 25732 ft | 444 kts | 255° |
| 2026-04-28 12:18 | 31.60826 | 117.57510 | 25740 ft | 444 kts | 255° |
| 2026-04-28 12:18 | 31.60123 | 117.53983 | 25743 ft | 444 kts | 256° |
| 2026-04-28 12:18 | 31.59482 | 117.50438 | 25736 ft | 444 kts | 257° |
| 2026-04-28 12:19 | 31.58878 | 117.46885 | 25727 ft | 445 kts | 257° |
| 2026-04-28 12:19 | 31.58288 | 117.43373 | 25728 ft | 445 kts | 257° |
| 2026-04-28 12:19 | 31.57684 | 117.39815 | 25732 ft | 445 kts | 257° |
| 2026-04-28 12:19 | 31.57068 | 117.36258 | 25734 ft | 445 kts | 257° |
| 2026-04-28 12:20 | 31.56439 | 117.32699 | 25736 ft | 446 kts | 257° |
| 2026-04-28 12:20 | 31.55802 | 117.29144 | 25741 ft | 446 kts | 257° |
| 2026-04-28 12:20 | 31.55159 | 117.25587 | 25742 ft | 446 kts | 257° |
| 2026-04-28 12:20 | 31.54520 | 117.22029 | 25745 ft | 446 kts | 257° |
| 2026-04-28 12:21 | 31.53885 | 117.18474 | 25748 ft | 446 kts | 257° |
| 2026-04-28 12:21 | 31.53253 | 117.14915 | 25753 ft | 446 kts | 257° |
| 2026-04-28 12:21 | 31.52620 | 117.11359 | 25752 ft | 445 kts | 257° |
| 2026-04-28 12:21 | 31.51989 | 117.07812 | 25752 ft | 445 kts | 257° |
| 2026-04-28 12:22 | 31.51356 | 117.04261 | 25752 ft | 445 kts | 257° |
| 2026-04-28 12:22 | 31.50726 | 117.00712 | 25751 ft | 445 kts | 257° |
| 2026-04-28 12:22 | 31.50099 | 116.97167 | 25752 ft | 445 kts | 257° |
| 2026-04-28 12:22 | 31.49469 | 116.93613 | 25751 ft | 445 kts | 257° |
| 2026-04-28 12:23 | 31.48837 | 116.90072 | 25748 ft | 445 kts | 257° |
| 2026-04-28 12:23 | 31.48079 | 116.86569 | 25736 ft | 443 kts | 250° |
| 2026-04-28 12:23 | 31.46827 | 116.83280 | 25737 ft | 443 kts | 240° |
| 2026-04-28 12:23 | 31.45096 | 116.80294 | 25738 ft | 444 kts | 233° |
| 2026-04-28 12:24 | 31.43211 | 116.77432 | 25736 ft | 444 kts | 233° |
| 2026-04-28 12:24 | 31.41331 | 116.74568 | 25739 ft | 444 kts | 233° |
| 2026-04-28 12:24 | 31.39456 | 116.71695 | 25740 ft | 444 kts | 233° |
| 2026-04-28 12:24 | 31.37584 | 116.68817 | 25742 ft | 444 kts | 234° |
| 2026-04-28 12:25 | 31.35711 | 116.65947 | 25745 ft | 444 kts | 233° |
| 2026-04-28 12:25 | 31.33830 | 116.63078 | 25743 ft | 444 kts | 233° |
| 2026-04-28 12:25 | 31.31949 | 116.60212 | 25744 ft | 444 kts | 233° |
| 2026-04-28 12:25 | 31.30068 | 116.57349 | 25723 ft | 444 kts | 233° |
| 2026-04-28 12:26 | 31.28184 | 116.54485 | 25728 ft | 445 kts | 233° |
| 2026-04-28 12:26 | 31.26299 | 116.51617 | 25730 ft | 445 kts | 233° |
| 2026-04-28 12:26 | 31.24409 | 116.48744 | 25731 ft | 445 kts | 233° |
| 2026-04-28 12:26 | 31.22522 | 116.45877 | 25727 ft | 445 kts | 233° |
| 2026-04-28 12:27 | 31.20633 | 116.43011 | 25731 ft | 445 kts | 233° |
| 2026-04-28 12:27 | 31.18740 | 116.40138 | 25728 ft | 445 kts | 233° |
| 2026-04-28 12:27 | 31.16854 | 116.37275 | 25729 ft | 446 kts | 233° |
| 2026-04-28 12:27 | 31.14963 | 116.34404 | 25722 ft | 446 kts | 233° |
| 2026-04-28 12:28 | 31.13071 | 116.31537 | 25723 ft | 446 kts | 233° |
| 2026-04-28 12:28 | 31.11177 | 116.28673 | 25725 ft | 446 kts | 233° |
| 2026-04-28 12:28 | 31.09281 | 116.25806 | 25729 ft | 446 kts | 233° |
| 2026-04-28 12:28 | 31.07387 | 116.22942 | 25724 ft | 446 kts | 233° |
| 2026-04-28 12:29 | 31.03600 | 116.17222 | 25720 ft | 445 kts | 233° |
| 2026-04-28 12:29 | 31.01711 | 116.14369 | 25725 ft | 445 kts | 233° |
| 2026-04-28 12:29 | 30.99821 | 116.11514 | 25708 ft | 444 kts | 233° |
| 2026-04-28 12:30 | 30.97931 | 116.08664 | 25716 ft | 444 kts | 233° |
| 2026-04-28 12:30 | 30.96042 | 116.05818 | 25713 ft | 444 kts | 233° |
| 2026-04-28 12:30 | 30.94174 | 116.03010 | 25718 ft | 444 kts | 233° |
| 2026-04-28 12:30 | 30.92281 | 116.00169 | 25674 ft | 445 kts | 232° |
| 2026-04-28 12:31 | 30.90381 | 115.97321 | 25671 ft | 446 kts | 233° |
| 2026-04-28 12:31 | 30.88477 | 115.94465 | 25678 ft | 447 kts | 233° |
| 2026-04-28 12:31 | 30.86574 | 115.91613 | 25678 ft | 447 kts | 233° |
| 2026-04-28 12:31 | 30.84667 | 115.88755 | 25662 ft | 447 kts | 233° |
| 2026-04-28 12:32 | 30.82767 | 115.85893 | 25664 ft | 447 kts | 233° |
| 2026-04-28 12:32 | 30.80874 | 115.83027 | 25667 ft | 447 kts | 233° |
| 2026-04-28 12:32 | 30.78984 | 115.80150 | 25668 ft | 447 kts | 233° |
| 2026-04-28 12:32 | 30.77098 | 115.77276 | 25663 ft | 447 kts | 233° |
| 2026-04-28 12:33 | 30.75182 | 115.74358 | 25660 ft | 447 kts | 233° |
| 2026-04-28 12:33 | 30.73319 | 115.71525 | 25646 ft | 448 kts | 233° |
| 2026-04-28 12:33 | 30.71426 | 115.68648 | 25643 ft | 448 kts | 233° |
| 2026-04-28 12:33 | 30.69501 | 115.65733 | 25645 ft | 449 kts | 233° |
| 2026-04-28 12:34 | 30.67596 | 115.62858 | 25649 ft | 450 kts | 233° |
| 2026-04-28 12:34 | 30.65712 | 115.60014 | 25651 ft | 450 kts | 233° |
| 2026-04-28 12:34 | 30.63802 | 115.57134 | 25654 ft | 450 kts | 233° |
| 2026-04-28 12:34 | 30.61890 | 115.54254 | 25653 ft | 450 kts | 233° |
| 2026-04-28 12:35 | 30.59980 | 115.51377 | 25658 ft | 451 kts | 233° |
| 2026-04-28 12:35 | 30.58065 | 115.48492 | 25659 ft | 451 kts | 233° |
| 2026-04-28 12:35 | 30.56154 | 115.45610 | 25661 ft | 451 kts | 233° |
| 2026-04-28 12:35 | 30.54240 | 115.42728 | 25360 ft | 452 kts | 233° |
| 2026-04-28 12:36 | 30.52315 | 115.39833 | 24894 ft | 454 kts | 232° |
| 2026-04-28 12:36 | 30.50382 | 115.36928 | 24445 ft | 456 kts | 232° |
| 2026-04-28 12:36 | 30.48487 | 115.33977 | 24002 ft | 458 kts | 238° |
| 2026-04-28 12:36 | 30.47145 | 115.30635 | 23572 ft | 458 kts | 252° |
| 2026-04-28 12:37 | 30.46648 | 115.27000 | 23048 ft | 459 kts | 269° |
| 2026-04-28 12:37 | 30.47217 | 115.23390 | 22533 ft | 457 kts | 285° |
| 2026-04-28 12:37 | 30.48482 | 115.20016 | 22044 ft | 457 kts | 294° |
| 2026-04-28 12:37 | 30.50112 | 115.16899 | 21659 ft | 449 kts | 301° |
| 2026-04-28 12:38 | 30.51870 | 115.13936 | 21293 ft | 443 kts | 301° |
| 2026-04-28 12:38 | 30.53610 | 115.11002 | 20926 ft | 440 kts | 301° |
| 2026-04-28 12:38 | 30.55361 | 115.08100 | 20565 ft | 437 kts | 302° |
| 2026-04-28 12:38 | 30.57124 | 115.05235 | 20209 ft | 435 kts | 302° |
| 2026-04-28 12:39 | 30.58895 | 115.02401 | 19855 ft | 433 kts | 302° |
| 2026-04-28 12:39 | 30.60662 | 114.99590 | 19514 ft | 429 kts | 301° |
| 2026-04-28 12:39 | 30.62237 | 114.96683 | 19170 ft | 423 kts | 297° |
| 2026-04-28 12:39 | 30.63728 | 114.93757 | 18827 ft | 420 kts | 297° |
| 2026-04-28 12:40 | 30.65207 | 114.90842 | 18503 ft | 418 kts | 296° |
| 2026-04-28 12:40 | 30.66673 | 114.87948 | 18124 ft | 411 kts | 296° |
| 2026-04-28 12:40 | 30.68103 | 114.85124 | 17739 ft | 400 kts | 296° |
| 2026-04-28 12:40 | 30.69475 | 114.82411 | 17363 ft | 391 kts | 296° |
| 2026-04-28 12:41 | 30.70843 | 114.79701 | 16984 ft | 387 kts | 296° |
| 2026-04-28 12:41 | 30.72196 | 114.77007 | 16610 ft | 385 kts | 296° |
| 2026-04-28 12:41 | 30.73540 | 114.74324 | 16239 ft | 383 kts | 296° |
| 2026-04-28 12:41 | 30.74878 | 114.71648 | 15876 ft | 382 kts | 297° |
| 2026-04-28 12:42 | 30.76212 | 114.68981 | 15513 ft | 381 kts | 297° |
| 2026-04-28 12:42 | 30.77543 | 114.66318 | 15157 ft | 380 kts | 297° |
| 2026-04-28 12:42 | 30.78870 | 114.63667 | 14808 ft | 379 kts | 297° |
| 2026-04-28 12:42 | 30.80195 | 114.61022 | 14459 ft | 378 kts | 297° |
| 2026-04-28 12:43 | 30.81517 | 114.58385 | 14111 ft | 377 kts | 297° |
| 2026-04-28 12:43 | 30.82836 | 114.55756 | 13757 ft | 376 kts | 297° |
| 2026-04-28 12:43 | 30.83998 | 114.53049 | 13366 ft | 371 kts | 287° |
| 2026-04-28 12:43 | 30.84518 | 114.50136 | 12980 ft | 367 kts | 272° |
| 2026-04-28 12:44 | 30.84345 | 114.47193 | 12596 ft | 365 kts | 257° |
| 2026-04-28 12:44 | 30.83506 | 114.44431 | 12219 ft | 362 kts | 242° |
| 2026-04-28 12:44 | 30.82077 | 114.42038 | 11908 ft | 362 kts | 227° |
| 2026-04-28 12:44 | 30.80248 | 114.40080 | 11867 ft | 349 kts | 221° |
| 2026-04-28 12:45 | 30.78470 | 114.38258 | 11727 ft | 335 kts | 222° |
| 2026-04-28 12:45 | 30.76738 | 114.36478 | 11437 ft | 330 kts | 223° |
| 2026-04-28 12:45 | 30.75036 | 114.34729 | 11148 ft | 324 kts | 222° |
| 2026-04-28 12:45 | 30.73362 | 114.33009 | 10860 ft | 319 kts | 222° |
| 2026-04-28 12:46 | 30.71709 | 114.31313 | 10570 ft | 314 kts | 222° |
| 2026-04-28 12:46 | 30.70079 | 114.29643 | 10287 ft | 310 kts | 222° |
| 2026-04-28 12:46 | 30.68471 | 114.27996 | 10006 ft | 306 kts | 221° |
| 2026-04-28 12:46 | 30.66884 | 114.26371 | 9695 ft | 303 kts | 221° |
| 2026-04-28 12:47 | 30.65310 | 114.24761 | 9354 ft | 300 kts | 221° |
| 2026-04-28 12:47 | 30.63751 | 114.23168 | 9018 ft | 297 kts | 221° |
| 2026-04-28 12:47 | 30.62207 | 114.21587 | 8685 ft | 295 kts | 221° |
| 2026-04-28 12:47 | 30.60673 | 114.20020 | 8355 ft | 292 kts | 221° |
| 2026-04-28 12:48 | 30.59155 | 114.18470 | 8029 ft | 289 kts | 221° |
| 2026-04-28 12:48 | 30.57651 | 114.16936 | 7704 ft | 287 kts | 220° |
| 2026-04-28 12:48 | 30.56158 | 114.15414 | 7384 ft | 284 kts | 220° |
| 2026-04-28 12:48 | 30.54679 | 114.13907 | 7066 ft | 282 kts | 220° |
| 2026-04-28 12:49 | 30.53212 | 114.12414 | 6759 ft | 279 kts | 220° |
| 2026-04-28 12:49 | 30.51786 | 114.10894 | 6445 ft | 277 kts | 230° |
| 2026-04-28 12:49 | 30.50977 | 114.08923 | 6116 ft | 270 kts | 265° |
| 2026-04-28 12:49 | 30.51175 | 114.06824 | 5785 ft | 259 kts | 298° |
| 2026-04-28 12:50 | 30.52164 | 114.05153 | 5463 ft | 249 kts | 318° |
| 2026-04-28 12:50 | 30.53321 | 114.03657 | 5154 ft | 247 kts | 323° |
| 2026-04-28 12:50 | 30.54689 | 114.02636 | 5036 ft | 224 kts | 349° |
| 2026-04-28 12:50 | 30.56144 | 114.02358 | 4921 ft | 204 kts | 11° |
| 2026-04-28 12:51 | 30.57474 | 114.02693 | 4744 ft | 191 kts | 30° |
| 2026-04-28 12:51 | 30.58559 | 114.03512 | 4527 ft | 184 kts | 46° |
| 2026-04-28 12:51 | 30.59521 | 114.04492 | 4290 ft | 183 kts | 46° |
| 2026-04-28 12:51 | 30.60477 | 114.05467 | 4048 ft | 183 kts | 46° |
| 2026-04-28 12:52 | 30.61429 | 114.06437 | 3810 ft | 182 kts | 46° |
| 2026-04-28 12:52 | 30.62368 | 114.07394 | 3580 ft | 182 kts | 46° |
| 2026-04-28 12:52 | 30.63319 | 114.08364 | 3340 ft | 182 kts | 47° |
| 2026-04-28 12:52 | 30.64264 | 114.09327 | 3099 ft | 178 kts | 46° |
| 2026-04-28 12:53 | 30.65180 | 114.10260 | 2860 ft | 172 kts | 46° |
| 2026-04-28 12:53 | 30.66039 | 114.11134 | 2657 ft | 156 kts | 46° |
| 2026-04-28 12:53 | 30.66817 | 114.11927 | 2466 ft | 141 kts | 45° |
| 2026-04-28 12:53 | 30.67310 | 114.12431 | 2313 ft | 137 kts | 45° |
| 2026-04-28 12:54 | 30.68245 | 114.13388 | 2071 ft | 134 kts | 44° |
| 2026-04-28 12:54 | 30.68939 | 114.14096 | 1889 ft | 132 kts | 43° |
| 2026-04-28 12:54 | 30.69628 | 114.14801 | 1713 ft | 132 kts | 42° |
| 2026-04-28 12:54 | 30.70317 | 114.15505 | 1535 ft | 132 kts | 41° |
| 2026-04-28 12:55 | 30.71004 | 114.16206 | 1352 ft | 131 kts | 40° |
| 2026-04-28 12:55 | 30.71689 | 114.16907 | 1174 ft | 131 kts | 40° |
| 2026-04-28 12:55 | 30.72374 | 114.17607 | 1001 ft | 130 kts | 41° |
| 2026-04-28 12:55 | 30.73058 | 114.18303 | 825 ft | 131 kts | 41° |
| 2026-04-28 12:56 | 30.73744 | 114.19010 | 669 ft | 133 kts | 39° |
| 2026-04-28 12:56 | 30.74446 | 114.19722 | 461 ft | 133 kts | 39° |
| 2026-04-28 12:56 | 30.75148 | 114.20443 | 299 ft | 135 kts | 41° |
| 2026-04-28 12:56 | 30.75852 | 114.21164 | 123 ft | 135 kts | 40° |
| 2026-04-28 12:57 | 30.76469 | 114.21798 | 108 ft | 95 kts | 41° |
| 2026-04-28 12:57 | 30.76828 | 114.22166 | 109 ft | 42 kts | 41° |
| 2026-04-28 12:57 | 30.77054 | 114.22296 | 109 ft | 31 kts | 15° |
| 2026-04-28 12:57 | 30.77174 | 114.22248 | 106 ft | 16 kts | 311° |
| 2026-04-28 12:58 | 30.77242 | 114.22159 | 106 ft | 15 kts | 310° |
| 2026-04-28 12:58 | 30.77312 | 114.22067 | 107 ft | 15 kts | 310° |
| 2026-04-28 12:58 | 30.77385 | 114.21973 | 107 ft | 16 kts | 311° |
| 2026-04-28 12:58 | 30.77463 | 114.21869 | 107 ft | 18 kts | 312° |
| 2026-04-28 12:59 | 30.77512 | 114.21785 | 108 ft | 9 kts | 259° |
| 2026-04-28 12:59 | 30.77475 | 114.21737 | 108 ft | 6 kts | 221° |
| 2026-04-28 12:59 | 30.77460 | 114.21722 | 108 ft | 3 kts | 221° |
| 2026-04-28 12:59 | 30.77454 | 114.21716 | 108 ft | 0 kts | 221° |